createdAt,value
2024-04-01T00:00:20.074Z,8.38
2024-04-01T00:01:21.103Z,8.15
2024-04-01T00:02:21.962Z,8.12
2024-04-01T00:03:22.824Z,7.98
2024-04-01T00:04:23.669Z,8.45
2024-04-01T00:05:24.513Z,8.30
2024-04-01T00:06:25.350Z,8.22
2024-04-01T00:07:26.205Z,7.92
2024-04-01T00:08:27.317Z,8.20
2024-04-01T00:09:28.158Z,7.82
2024-04-01T00:10:28.988Z,8.23
2024-04-01T00:11:29.842Z,8.13
2024-04-01T00:12:30.696Z,8.08
2024-04-01T00:13:31.532Z,8.33
2024-04-01T00:14:32.386Z,8.75
2024-04-01T00:15:33.215Z,8.92
2024-04-01T00:16:34.077Z,8.95
2024-04-01T00:17:34.950Z,8.75
2024-04-01T00:18:35.798Z,8.27
2024-04-01T00:19:36.631Z,8.40
2024-04-01T00:20:37.689Z,8.55
2024-04-01T00:21:38.546Z,8.43
2024-04-01T00:22:39.385Z,8.17
2024-04-01T00:23:40.234Z,8.22
2024-04-01T00:24:41.065Z,8.67
2024-04-01T00:25:41.924Z,8.92
2024-04-01T00:26:43.818Z,8.68
2024-04-01T00:27:44.788Z,8.52
2024-04-01T00:28:45.632Z,9.20
2024-04-01T00:29:46.471Z,8.57
2024-04-01T00:30:47.315Z,8.73
2024-04-01T00:31:48.168Z,8.97
2024-04-01T00:32:49.003Z,8.95
2024-04-01T00:33:50.539Z,8.92
2024-04-01T00:34:54.049Z,8.60
2024-04-01T00:35:58.950Z,9.35
2024-04-01T00:36:59.842Z,9.73
2024-04-01T00:38:00.684Z,8.72
2024-04-01T00:39:01.735Z,9.27
2024-04-01T00:40:02.796Z,9.02
2024-04-01T00:41:03.744Z,8.60
2024-04-01T00:42:05.026Z,9.72
2024-04-01T00:43:09.252Z,9.40
2024-04-01T00:44:10.101Z,9.08
2024-04-01T00:45:10.942Z,9.53
2024-04-01T00:46:11.775Z,9.23
2024-04-01T00:47:12.636Z,9.03
2024-04-01T00:48:14.027Z,9.45
2024-04-01T00:49:16.498Z,9.50
2024-04-01T00:50:17.898Z,9.62
2024-04-01T00:51:19.088Z,9.30
2024-04-01T00:52:19.965Z,9.57
2024-04-01T00:53:20.898Z,9.10
2024-04-01T00:54:21.727Z,9.08
2024-04-01T00:55:22.663Z,9.25
2024-04-01T00:56:23.580Z,9.55
2024-04-01T00:57:24.483Z,9.38
2024-04-01T00:58:25.458Z,9.12
2024-04-01T00:59:26.295Z,9.57
2024-04-01T01:00:27.171Z,8.72
2024-04-01T01:01:28.016Z,9.33
2024-04-01T01:02:29.571Z,9.47
2024-04-01T01:03:30.441Z,9.15
2024-04-01T01:04:31.276Z,9.23
2024-04-01T01:05:32.318Z,9.63
2024-04-01T01:06:33.202Z,9.60
2024-04-01T01:07:34.032Z,9.43
2024-04-01T01:08:34.864Z,9.47
2024-04-01T01:09:36.503Z,9.37
2024-04-01T01:10:37.378Z,8.80
2024-04-01T01:11:38.901Z,9.38
2024-04-01T01:12:40.324Z,9.67
2024-04-01T01:13:41.163Z,9.18
2024-04-01T01:14:41.996Z,9.08
2024-04-01T01:15:42.834Z,9.13
2024-04-01T01:16:43.732Z,8.90
2024-04-01T01:17:45.610Z,9.23
2024-04-01T01:18:46.452Z,8.98
2024-04-01T01:19:47.288Z,9.22
2024-04-01T01:20:48.160Z,9.57
2024-04-01T01:21:48.998Z,9.37
2024-04-01T01:22:49.832Z,9.18
2024-04-01T01:23:50.695Z,8.87
2024-04-01T01:24:51.528Z,9.83
2024-04-01T01:25:52.378Z,9.13
2024-04-01T01:26:55.577Z,9.35
2024-04-01T01:27:56.428Z,10.38
2024-04-01T01:28:58.628Z,9.42
2024-04-01T01:30:04.202Z,9.47
2024-04-01T01:31:05.275Z,9.50
2024-04-01T01:32:06.251Z,9.42
2024-04-01T01:33:07.211Z,9.08
2024-04-01T01:34:08.048Z,9.33
2024-04-01T01:35:09.205Z,9.35
2024-04-01T01:36:10.062Z,9.17
2024-04-01T01:37:10.916Z,9.28
2024-04-01T01:38:13.139Z,9.35
2024-04-01T01:39:13.980Z,9.30
2024-04-01T01:40:14.867Z,9.18
2024-04-01T01:41:15.699Z,8.83
2024-04-01T01:42:16.540Z,8.92
2024-04-01T01:43:17.418Z,8.88
2024-04-01T01:44:18.253Z,9.57
2024-04-01T01:45:19.112Z,9.57
2024-04-01T01:46:19.958Z,8.92
2024-04-01T01:47:20.800Z,9.10
2024-04-01T01:48:21.631Z,9.42
2024-04-01T01:49:23.873Z,9.03
2024-04-01T01:50:24.774Z,8.85
2024-04-01T01:51:27.190Z,9.02
2024-04-01T01:52:28.025Z,9.38
2024-04-01T01:53:28.878Z,9.28
2024-04-01T01:54:29.727Z,9.15
2024-04-01T01:55:30.570Z,8.55
2024-04-01T01:56:32.047Z,9.23
2024-04-01T01:57:33.176Z,9.33
2024-04-01T01:58:34.052Z,9.28
2024-04-01T01:59:34.931Z,8.88
2024-04-01T02:00:35.766Z,8.62
2024-04-01T02:01:36.612Z,8.77
2024-04-01T02:02:37.448Z,8.33
2024-04-01T02:03:38.338Z,9.05
2024-04-01T02:04:39.264Z,8.97
2024-04-01T02:05:41.887Z,8.38
2024-04-01T02:06:42.779Z,8.50
2024-04-01T02:07:43.630Z,8.33
2024-04-01T02:08:44.461Z,8.77
2024-04-01T02:09:45.304Z,8.65
2024-04-01T02:10:56.123Z,9.05
2024-04-01T02:11:57.668Z,8.65
2024-04-01T02:12:58.533Z,8.17
2024-04-01T02:13:59.458Z,8.68
2024-04-01T02:15:00.319Z,8.70
2024-04-01T02:16:07.909Z,8.45
2024-04-01T02:17:08.819Z,7.67
2024-04-01T02:18:09.678Z,7.48
2024-04-01T02:19:10.515Z,8.40
2024-04-01T02:20:16.069Z,7.75
2024-04-01T02:21:18.651Z,8.30
2024-04-01T02:22:22.799Z,7.80
2024-04-01T02:23:29.581Z,8.30
2024-04-01T02:24:30.413Z,7.97
2024-04-01T02:25:34.075Z,7.72
2024-04-01T02:26:34.999Z,7.57
2024-04-01T02:27:35.837Z,7.93
2024-04-01T02:28:36.668Z,8.23
2024-04-01T02:29:37.912Z,7.70
2024-04-01T02:30:38.762Z,7.52
2024-04-01T02:31:39.599Z,7.68
2024-04-01T02:32:40.601Z,7.43
2024-04-01T02:33:41.432Z,7.52
2024-04-01T02:34:42.269Z,7.82
2024-04-01T02:35:43.153Z,8.03
2024-04-01T02:36:43.988Z,7.72
2024-04-01T02:37:44.832Z,7.58
2024-04-01T02:38:48.717Z,8.02
2024-04-01T02:39:49.550Z,7.23
2024-04-01T02:40:50.405Z,7.08
2024-04-01T02:41:51.548Z,7.22
2024-04-01T02:42:52.388Z,7.23
2024-04-01T02:43:53.240Z,7.53
2024-04-01T02:44:54.113Z,7.70
2024-04-01T02:45:54.957Z,7.38
2024-04-01T02:46:55.793Z,7.42
2024-04-01T02:47:56.736Z,7.58
2024-04-01T02:48:57.571Z,7.45
2024-04-01T02:49:58.565Z,7.85
2024-04-01T02:50:59.401Z,7.58
2024-04-01T02:52:00.229Z,7.25
2024-04-01T02:53:01.145Z,7.70
2024-04-01T02:54:02.092Z,7.73
2024-04-01T02:55:03.079Z,7.40
2024-04-01T02:56:07.019Z,6.97
2024-04-01T02:57:08.758Z,6.97
2024-04-01T02:58:09.709Z,7.55
2024-04-01T02:59:10.558Z,7.15
2024-04-01T03:00:17.703Z,6.68
2024-04-01T03:01:18.582Z,7.45
2024-04-01T03:02:19.414Z,7.33
2024-04-01T03:03:20.605Z,7.13
2024-04-01T03:04:21.473Z,6.70
2024-04-01T03:05:22.311Z,7.22
2024-04-01T03:06:23.144Z,7.18
2024-04-01T03:07:23.979Z,6.42
2024-04-01T03:08:25.295Z,7.05
2024-04-01T03:09:26.137Z,7.68
2024-04-01T03:10:27.051Z,6.83
2024-04-01T03:11:27.912Z,7.00
2024-04-01T03:12:28.821Z,6.73
2024-04-01T03:13:29.729Z,6.75
2024-04-01T03:14:30.580Z,6.77
2024-04-01T03:15:31.531Z,6.60
2024-04-01T03:16:32.386Z,6.25
2024-04-01T03:17:33.245Z,6.28
2024-04-01T03:18:34.114Z,6.97
2024-04-01T03:19:34.948Z,6.92
2024-04-01T03:20:35.782Z,6.48
2024-04-01T03:21:36.618Z,6.38
2024-04-01T03:22:37.479Z,6.17
2024-04-01T03:23:38.323Z,6.40
2024-04-01T03:24:39.162Z,6.07
2024-04-01T03:25:40.062Z,6.47
2024-04-01T03:26:40.910Z,6.52
2024-04-01T03:27:42.726Z,6.22
2024-04-01T03:28:44.240Z,6.72
2024-04-01T03:29:45.077Z,6.70
2024-04-01T03:30:46.536Z,6.45
2024-04-01T03:31:47.372Z,6.03
2024-04-01T03:32:48.240Z,6.45
2024-04-01T03:33:49.076Z,6.38
2024-04-01T03:34:50.358Z,5.98
2024-04-01T03:35:56.962Z,6.08
2024-04-01T03:36:59.633Z,6.22
2024-04-01T03:38:00.586Z,5.90
2024-04-01T03:39:01.669Z,6.30
2024-04-01T03:40:02.670Z,5.83
2024-04-01T03:41:03.626Z,6.07
2024-04-01T03:42:04.533Z,6.20
2024-04-01T03:43:08.524Z,6.38
2024-04-01T03:44:09.365Z,6.02
2024-04-01T03:45:10.191Z,6.60
2024-04-01T03:46:11.053Z,6.47
2024-04-01T03:47:11.894Z,6.00
2024-04-01T03:48:12.773Z,5.95
2024-04-01T03:49:13.635Z,6.07
2024-04-01T03:50:14.500Z,6.03
2024-04-01T03:51:15.676Z,6.02
2024-04-01T03:52:16.505Z,6.33
2024-04-01T03:53:17.499Z,6.12
2024-04-01T03:54:18.362Z,6.35
2024-04-01T03:55:19.290Z,6.15
2024-04-01T03:56:20.148Z,6.78
2024-04-01T03:57:20.985Z,6.23
2024-04-01T03:58:21.829Z,6.02
2024-04-01T03:59:22.674Z,5.97
2024-04-01T04:00:23.544Z,6.33
2024-04-01T04:01:24.642Z,5.98
2024-04-01T04:02:25.514Z,5.87
2024-04-01T04:03:26.372Z,6.18
2024-04-01T04:04:27.251Z,6.22
2024-04-01T04:05:28.279Z,6.03
2024-04-01T04:06:29.142Z,6.28
2024-04-01T04:07:29.977Z,6.60
2024-04-01T04:08:30.821Z,6.48
2024-04-01T04:09:31.678Z,6.52
2024-04-01T04:10:32.520Z,6.32
2024-04-01T04:11:33.718Z,6.07
2024-04-01T04:12:34.548Z,6.58
2024-04-01T04:13:35.420Z,5.83
2024-04-01T04:14:36.287Z,5.95
2024-04-01T04:15:37.151Z,6.28
2024-04-01T04:16:38.062Z,6.48
2024-04-01T04:17:38.900Z,6.00
2024-04-01T04:18:39.755Z,6.17
2024-04-01T04:19:40.591Z,6.28
2024-04-01T04:20:41.430Z,6.73
2024-04-01T04:21:42.306Z,6.10
2024-04-01T04:22:45.091Z,6.22
2024-04-01T04:23:45.957Z,6.28
2024-04-01T04:24:47.039Z,6.63
2024-04-01T04:25:47.886Z,6.43
2024-04-01T04:26:48.852Z,6.08
2024-04-01T04:27:49.720Z,5.95
2024-04-01T04:28:50.702Z,6.33
2024-04-01T04:29:51.563Z,6.42
2024-04-01T04:30:52.423Z,6.13
2024-04-01T04:31:54.512Z,5.85
2024-04-01T04:32:55.369Z,6.10
2024-04-01T04:33:56.291Z,6.55
2024-04-01T04:34:57.142Z,6.22
2024-04-01T04:35:58.274Z,6.27
2024-04-01T04:36:59.249Z,6.30
2024-04-01T04:38:02.128Z,6.28
2024-04-01T04:39:19.441Z,6.12
2024-04-01T04:40:20.502Z,6.12
2024-04-01T04:41:22.380Z,6.17
2024-04-01T04:42:23.230Z,6.32
2024-04-01T04:43:24.067Z,6.50
2024-04-01T04:44:24.900Z,6.37
2024-04-01T04:45:26.000Z,6.00
2024-04-01T04:46:26.889Z,5.87
2024-04-01T04:47:27.777Z,6.32
2024-04-01T04:48:28.878Z,5.88
2024-04-01T04:49:29.722Z,6.05
2024-04-01T04:50:31.669Z,6.25
2024-04-01T04:51:33.632Z,6.18
2024-04-01T04:52:34.472Z,6.20
2024-04-01T04:53:35.985Z,5.85
2024-04-01T04:54:37.270Z,6.33
2024-04-01T04:55:40.173Z,6.27
2024-04-01T04:56:41.011Z,6.17
2024-04-01T04:57:42.277Z,5.83
2024-04-01T04:58:43.112Z,6.03
2024-04-01T04:59:43.957Z,5.92
2024-04-01T05:00:44.820Z,5.75
2024-04-01T05:01:45.656Z,6.43
2024-04-01T05:02:47.788Z,6.57
2024-04-01T05:03:48.675Z,6.63
2024-04-01T05:04:50.052Z,5.87
2024-04-01T05:05:50.947Z,6.03
2024-04-01T05:06:51.784Z,6.52
2024-04-01T05:07:52.619Z,6.53
2024-04-01T05:08:53.562Z,6.48
2024-04-01T05:09:54.427Z,6.00
2024-04-01T05:10:56.336Z,6.03
2024-04-01T05:11:57.269Z,6.52
2024-04-01T05:12:58.198Z,6.32
2024-04-01T05:13:59.099Z,5.73
2024-04-01T05:14:59.940Z,6.18
2024-04-01T05:16:01.008Z,6.47
2024-04-01T05:17:01.853Z,6.33
2024-04-01T05:18:03.679Z,5.85
2024-04-01T05:19:07.458Z,6.20
2024-04-01T05:20:13.791Z,6.15
2024-04-01T05:21:14.635Z,6.48
2024-04-01T05:22:15.465Z,6.07
2024-04-01T05:23:16.298Z,5.75
2024-04-01T05:24:17.778Z,6.28
2024-04-01T05:25:18.709Z,6.08
2024-04-01T05:26:20.241Z,6.25
2024-04-01T05:27:21.651Z,6.25
2024-04-01T05:28:22.693Z,6.42
2024-04-01T05:29:23.531Z,6.42
2024-04-01T05:30:24.371Z,6.13
2024-04-01T05:31:25.237Z,5.75
2024-04-01T05:32:26.086Z,5.62
2024-04-01T05:33:33.266Z,6.72
2024-04-01T05:34:37.768Z,6.17
2024-04-01T05:35:38.606Z,6.38
2024-04-01T05:36:39.456Z,6.22
2024-04-01T05:37:41.388Z,6.63
2024-04-01T05:38:42.273Z,5.85
2024-04-01T05:39:43.120Z,6.13
2024-04-01T05:40:44.111Z,6.18
2024-04-01T05:41:44.953Z,6.12
2024-04-01T05:42:45.822Z,5.92
2024-04-01T05:43:46.667Z,6.38
2024-04-01T05:44:47.846Z,6.25
2024-04-01T05:45:50.054Z,6.22
2024-04-01T05:46:51.306Z,5.90
2024-04-01T05:47:52.818Z,6.20
2024-04-01T05:48:53.697Z,6.18
2024-04-01T05:49:54.541Z,6.12
2024-04-01T05:50:55.379Z,6.35
2024-04-01T05:51:56.240Z,6.02
2024-04-01T05:52:57.114Z,6.20
2024-04-01T05:53:57.963Z,6.43
2024-04-01T05:54:58.809Z,5.90
2024-04-01T05:56:03.486Z,6.18
2024-04-01T05:57:04.361Z,6.32
2024-04-01T05:58:05.197Z,5.97
2024-04-01T05:59:06.037Z,6.00
2024-04-01T06:00:08.347Z,5.75
2024-04-01T06:01:11.691Z,5.70
2024-04-01T06:02:12.531Z,5.98
2024-04-01T06:03:13.412Z,5.90
2024-04-01T06:04:14.272Z,6.02
2024-04-01T06:05:15.354Z,6.03
2024-04-01T06:06:16.201Z,6.13
2024-04-01T06:07:17.039Z,6.10
2024-04-01T06:08:17.873Z,6.10
2024-04-01T06:09:18.729Z,6.08
2024-04-01T06:10:20.052Z,5.90
2024-04-01T06:11:20.891Z,6.17
2024-04-01T06:12:21.716Z,5.90
2024-04-01T06:13:22.547Z,5.90
2024-04-01T06:14:23.383Z,6.22
2024-04-01T06:15:24.255Z,6.53
2024-04-01T06:16:26.157Z,6.18
2024-04-01T06:17:27.036Z,6.27
2024-04-01T06:18:27.903Z,6.15
2024-04-01T06:19:28.822Z,6.10
2024-04-01T06:20:30.146Z,5.98
2024-04-01T06:21:32.586Z,6.22
2024-04-01T06:22:33.576Z,5.95
2024-04-01T06:23:34.428Z,6.18
2024-04-01T06:24:35.282Z,6.27
2024-04-01T06:25:39.921Z,5.87
2024-04-01T06:26:40.778Z,5.82
2024-04-01T06:27:41.612Z,5.93
2024-04-01T06:28:44.551Z,5.72
2024-04-01T06:29:45.407Z,6.37
2024-04-01T06:30:47.974Z,6.22
2024-04-01T06:31:48.842Z,5.58
2024-04-01T06:32:49.714Z,5.35
2024-04-01T06:33:50.572Z,6.17
2024-04-01T06:34:54.172Z,5.93
2024-04-01T06:36:22.745Z,5.88
2024-04-01T06:37:23.595Z,5.82
2024-04-01T06:38:24.428Z,5.42
2024-04-01T06:39:25.288Z,6.08
2024-04-01T06:40:26.253Z,6.03
2024-04-01T06:41:27.528Z,5.77
2024-04-01T06:42:28.412Z,6.22
2024-04-01T06:43:29.563Z,6.07
2024-04-01T06:44:30.478Z,6.28
2024-04-01T06:45:31.317Z,6.08
2024-04-01T06:46:32.158Z,6.28
2024-04-01T06:47:33.030Z,5.65
2024-04-01T06:48:34.865Z,6.12
2024-04-01T06:49:35.727Z,5.70
2024-04-01T06:50:36.586Z,6.23
2024-04-01T06:51:37.432Z,6.87
2024-04-01T06:52:38.294Z,6.83
2024-04-01T06:53:39.201Z,5.82
2024-04-01T06:54:40.210Z,5.83
2024-04-01T06:55:41.053Z,6.48
2024-04-01T06:56:41.892Z,6.35
2024-04-01T06:57:43.687Z,6.08
2024-04-01T06:58:44.548Z,6.10
2024-04-01T06:59:45.386Z,5.92
2024-04-01T07:00:46.221Z,6.35
2024-04-01T07:01:47.059Z,6.48
2024-04-01T07:02:47.927Z,6.67
2024-04-01T07:03:48.843Z,6.33
2024-04-01T07:04:49.691Z,6.32
2024-04-01T07:05:50.552Z,6.62
2024-04-01T07:06:51.408Z,6.48
2024-04-01T07:07:52.246Z,6.53
2024-04-01T07:08:53.087Z,6.52
2024-04-01T07:09:53.937Z,6.00
2024-04-01T07:10:54.837Z,5.70
2024-04-01T07:11:55.686Z,6.17
2024-04-01T07:12:56.520Z,6.20
2024-04-01T07:13:57.365Z,6.57
2024-04-01T07:14:58.205Z,6.32
2024-04-01T07:15:59.081Z,6.82
2024-04-01T07:17:01.387Z,6.65
2024-04-01T07:18:02.221Z,6.57
2024-04-01T07:19:03.071Z,6.50
2024-04-01T07:20:05.044Z,6.50
2024-04-01T07:21:05.915Z,7.10
2024-04-01T07:22:06.757Z,7.10
2024-04-01T07:23:07.598Z,6.92
2024-04-01T07:24:08.472Z,6.80
2024-04-01T07:25:09.337Z,6.90
2024-04-01T07:26:10.221Z,7.35
2024-04-01T07:27:11.051Z,7.35
2024-04-01T07:28:11.930Z,7.07
2024-04-01T07:29:15.606Z,6.98
2024-04-01T07:30:16.554Z,6.92
2024-04-01T07:31:17.418Z,6.72
2024-04-01T07:32:18.379Z,7.68
2024-04-01T07:33:19.260Z,6.67
2024-04-01T07:34:20.130Z,6.90
2024-04-01T07:35:20.974Z,6.85
2024-04-01T07:36:21.837Z,7.00
2024-04-01T07:37:22.768Z,7.07
2024-04-01T07:38:23.598Z,6.98
2024-04-01T07:39:24.492Z,7.23
2024-04-01T07:40:26.425Z,7.13
2024-04-01T07:41:27.268Z,6.70
2024-04-01T07:42:28.112Z,6.83
2024-04-01T07:43:28.982Z,7.33
2024-04-01T07:44:29.846Z,7.25
2024-04-01T07:45:30.707Z,7.08
2024-04-01T07:46:31.589Z,7.22
2024-04-01T07:47:32.559Z,6.97
2024-04-01T07:48:33.393Z,7.15
2024-04-01T07:49:34.628Z,7.27
2024-04-01T07:50:35.459Z,7.00
2024-04-01T07:51:36.324Z,7.18
2024-04-01T07:52:37.650Z,7.58
2024-04-01T07:53:38.538Z,7.22
2024-04-01T07:54:39.377Z,6.92
2024-04-01T07:55:40.228Z,7.63
2024-04-01T07:56:41.066Z,7.52
2024-04-01T07:57:41.906Z,7.37
2024-04-01T07:58:42.775Z,7.37
2024-04-01T07:59:44.118Z,6.75
2024-04-01T08:00:44.960Z,7.10
2024-04-01T08:01:45.802Z,7.32
2024-04-01T08:02:46.658Z,7.03
2024-04-01T08:03:47.494Z,7.43
2024-04-01T08:04:48.839Z,7.28
2024-04-01T08:05:50.531Z,7.95
2024-04-01T08:06:51.393Z,8.90
2024-04-01T08:07:52.236Z,8.10
2024-04-01T08:08:53.088Z,8.02
2024-04-01T08:09:53.922Z,7.87
2024-04-01T08:10:54.757Z,7.60
2024-04-01T08:11:55.622Z,7.53
2024-04-01T08:12:56.469Z,8.20
2024-04-01T08:13:57.312Z,8.68
2024-04-01T08:14:58.163Z,8.20
2024-04-01T08:16:02.399Z,8.45
2024-04-01T08:17:03.978Z,8.27
2024-04-01T08:18:04.950Z,8.77
2024-04-01T08:19:05.790Z,8.42
2024-04-01T08:20:08.457Z,8.98
2024-04-01T08:21:09.331Z,8.90
2024-04-01T08:22:10.230Z,8.93
2024-04-01T08:23:11.062Z,9.45
2024-04-01T08:24:12.164Z,9.22
2024-04-01T08:25:13.733Z,9.27
2024-04-01T08:26:14.579Z,9.18
2024-04-01T08:27:16.922Z,8.98
2024-04-01T08:28:17.876Z,8.87
2024-04-01T08:29:18.714Z,8.58
2024-04-01T08:30:19.546Z,8.92
2024-04-01T08:31:20.408Z,8.72
2024-04-01T08:32:21.242Z,9.12
2024-04-01T08:33:22.106Z,8.52
2024-04-01T08:34:23.631Z,8.73
2024-04-01T08:35:24.522Z,9.02
2024-04-01T08:36:25.378Z,8.93
2024-04-01T08:37:26.638Z,9.67
2024-04-01T08:38:27.962Z,9.50
2024-04-01T08:39:28.812Z,8.98
2024-04-01T08:40:31.830Z,9.48
2024-04-01T08:41:51.950Z,9.12
2024-04-01T08:42:55.260Z,9.17
2024-04-01T08:43:58.786Z,8.73
2024-04-01T08:44:59.640Z,10.02
2024-04-01T08:46:00.603Z,8.70
2024-04-01T08:47:01.530Z,9.17
2024-04-01T08:48:06.976Z,9.22
2024-04-01T08:49:10.989Z,9.48
2024-04-01T08:50:23.766Z,9.25
2024-04-01T08:51:25.237Z,9.53
2024-04-01T08:52:26.953Z,9.18
2024-04-01T08:53:33.511Z,9.68
2024-04-01T08:54:34.369Z,9.62
2024-04-01T08:55:35.220Z,9.60
2024-04-01T08:56:42.407Z,9.53
2024-04-01T08:57:44.815Z,9.95
2024-04-01T08:58:48.254Z,10.02
2024-04-01T08:59:49.768Z,10.17
2024-04-01T09:00:50.623Z,9.82
2024-04-01T09:01:51.468Z,9.37
2024-04-01T09:02:52.311Z,9.43
2024-04-01T09:03:53.414Z,9.33
2024-04-01T09:04:54.808Z,10.27
2024-04-01T09:05:57.792Z,9.50
2024-04-01T09:06:58.727Z,9.62
2024-04-01T09:07:59.574Z,10.10
2024-04-01T09:09:00.459Z,8.97
2024-04-01T09:10:01.291Z,10.12
2024-04-01T09:11:02.133Z,9.33
2024-04-01T09:12:03.140Z,9.18
2024-04-01T09:13:04.062Z,9.53
2024-04-01T09:14:05.744Z,9.68
2024-04-01T09:15:12.036Z,9.47
2024-04-01T09:16:12.871Z,9.33
2024-04-01T09:17:22.872Z,9.72
2024-04-01T09:18:23.746Z,9.68
2024-04-01T09:19:24.907Z,9.48
2024-04-01T09:20:25.780Z,10.03
2024-04-01T09:21:26.638Z,9.92
2024-04-01T09:22:27.493Z,10.12
2024-04-01T09:23:30.607Z,10.17
2024-04-01T09:24:33.928Z,10.67
2024-04-01T09:25:34.867Z,9.38
2024-04-01T09:26:35.759Z,9.47
2024-04-01T09:27:36.591Z,9.48
2024-04-01T09:28:37.458Z,9.58
2024-04-01T09:29:38.361Z,9.13
2024-04-01T09:30:39.209Z,10.47
2024-04-01T09:31:40.105Z,9.48
2024-04-01T09:32:40.951Z,9.73
2024-04-01T09:33:41.788Z,9.73
2024-04-01T09:34:42.865Z,9.18
2024-04-01T09:35:43.743Z,9.55
2024-04-01T09:36:44.597Z,9.77
2024-04-01T09:37:45.467Z,10.00
2024-04-01T09:38:46.579Z,10.15
2024-04-01T09:39:47.441Z,9.97
2024-04-01T09:40:51.765Z,10.13
2024-04-01T09:41:52.629Z,9.60
2024-04-01T09:42:57.660Z,9.97
2024-04-01T09:43:58.566Z,9.57
2024-04-01T09:44:59.670Z,10.03
2024-04-01T09:46:02.739Z,9.57
2024-04-01T09:47:05.080Z,10.20
2024-04-01T09:48:06.288Z,10.17
2024-04-01T09:49:07.132Z,9.98
2024-04-01T09:50:07.959Z,8.78
2024-04-01T09:51:08.829Z,9.78
2024-04-01T09:52:09.671Z,10.02
2024-04-01T09:53:10.510Z,10.13
2024-04-01T09:54:11.356Z,10.13
2024-04-01T09:55:21.469Z,10.15
2024-04-01T09:56:39.968Z,9.95
2024-04-01T09:58:18.233Z,9.63
2024-04-01T09:59:27.295Z,10.32
2024-04-01T10:00:38.347Z,10.32
2024-04-01T10:02:16.075Z,10.62
2024-04-01T10:03:38.217Z,10.27
2024-04-01T10:04:55.816Z,10.22
2024-04-01T10:06:14.435Z,10.33
2024-04-01T10:07:47.328Z,10.25
2024-04-01T10:09:15.594Z,9.77
2024-04-01T10:10:35.732Z,10.37
2024-04-01T10:11:56.285Z,10.20
2024-04-01T10:13:33.611Z,9.38
2024-04-01T10:15:20.603Z,9.65
2024-04-01T10:16:53.875Z,10.52
2024-04-01T10:18:35.603Z,9.62
2024-04-01T10:20:08.671Z,9.68
2024-04-01T10:21:20.910Z,10.20
2024-04-01T10:22:30.428Z,10.50
2024-04-01T10:23:55.574Z,10.08
2024-04-01T10:25:05.291Z,10.38
2024-04-01T10:26:43.246Z,10.43
2024-04-01T10:28:08.175Z,10.17
2024-04-01T10:29:46.028Z,9.67
2024-04-01T10:31:08.664Z,9.57
2024-04-01T10:32:15.211Z,9.90
2024-04-01T10:33:52.959Z,9.63
2024-04-01T10:35:20.850Z,9.93
2024-04-01T10:36:34.188Z,9.85
2024-04-01T10:37:51.436Z,9.33
2024-04-01T10:39:33.889Z,10.05
2024-04-01T10:40:53.099Z,10.07
2024-04-01T10:41:59.461Z,9.25
2024-04-01T10:43:29.057Z,9.43
2024-04-01T10:45:01.144Z,9.13
2024-04-01T10:46:04.684Z,9.87
2024-04-01T10:47:40.410Z,10.08
2024-04-01T10:49:23.261Z,9.57
2024-04-01T10:50:51.758Z,9.80
2024-04-01T10:52:21.731Z,9.68
2024-04-01T10:53:57.638Z,9.72
2024-04-01T10:55:08.301Z,9.90
2024-04-01T10:56:34.353Z,9.42
2024-04-01T10:57:59.421Z,10.08
2024-04-01T10:59:18.610Z,9.55
2024-04-01T11:00:52.809Z,9.65
2024-04-01T11:02:14.606Z,9.75
2024-04-01T11:03:24.184Z,9.77
2024-04-01T11:04:33.508Z,9.72
2024-04-01T11:06:11.619Z,9.65
2024-04-01T11:07:15.233Z,9.38
2024-04-01T11:08:29.099Z,9.82
2024-04-01T11:09:55.887Z,9.75
2024-04-01T11:11:15.295Z,9.42
2024-04-01T11:12:51.143Z,10.07
2024-04-01T11:13:52.017Z,10.28
2024-04-01T11:14:52.908Z,9.72
2024-04-01T11:15:55.433Z,9.88
2024-04-01T11:16:57.126Z,9.93
2024-04-01T11:18:22.345Z,9.23
2024-04-01T11:19:37.637Z,9.25
2024-04-01T11:20:44.480Z,9.82
2024-04-01T11:21:50.841Z,9.50
2024-04-01T11:23:01.295Z,9.68
2024-04-01T11:24:33.494Z,9.85
2024-04-01T11:26:11.064Z,10.02
2024-04-01T11:27:30.446Z,10.20
2024-04-01T11:29:08.343Z,9.77
2024-04-01T11:30:20.908Z,10.35
2024-04-01T11:31:23.796Z,9.83
2024-04-01T11:32:24.900Z,10.13
2024-04-01T11:33:27.125Z,9.78
2024-04-01T11:34:54.691Z,9.77
2024-04-01T11:35:55.528Z,9.78
2024-04-01T11:37:07.671Z,10.05
2024-04-01T11:38:26.940Z,9.50
2024-04-01T11:39:27.773Z,9.75
2024-04-01T11:40:32.828Z,9.65
2024-04-01T11:41:34.394Z,9.93
2024-04-01T11:42:38.934Z,9.97
2024-04-01T11:43:41.069Z,9.70
2024-04-01T11:44:46.250Z,10.63
2024-04-01T11:45:47.798Z,10.00
2024-04-01T11:46:48.674Z,10.53
2024-04-01T11:47:49.528Z,10.47
2024-04-01T11:48:56.347Z,9.92
2024-04-01T11:49:57.229Z,9.73
2024-04-01T11:50:58.410Z,9.60
2024-04-01T11:51:59.305Z,9.92
2024-04-01T11:53:05.303Z,10.32
2024-04-01T11:54:08.727Z,10.05
2024-04-01T11:55:12.861Z,9.98
2024-04-01T11:56:13.705Z,10.00
2024-04-01T11:57:23.724Z,10.58
2024-04-01T11:58:25.190Z,10.45
2024-04-01T11:59:29.847Z,9.78
2024-04-01T12:00:30.889Z,9.92
2024-04-01T12:01:32.330Z,9.97
2024-04-01T12:02:34.137Z,9.28
2024-04-01T12:03:39.461Z,10.02
2024-04-01T12:04:40.319Z,10.38
2024-04-01T12:05:51.571Z,9.48
2024-04-01T12:06:52.411Z,9.98
2024-04-01T12:07:53.245Z,9.70
2024-04-01T12:08:54.088Z,10.30
2024-04-01T12:09:54.920Z,10.30
2024-04-01T12:10:58.134Z,10.05
2024-04-01T12:11:59.778Z,9.95
2024-04-01T12:13:00.638Z,10.37
2024-04-01T12:14:05.028Z,9.85
2024-04-01T12:15:06.056Z,10.28
2024-04-01T12:16:08.288Z,10.13
2024-04-01T12:17:09.130Z,9.03
2024-04-01T12:18:16.210Z,9.68
2024-04-01T12:19:17.410Z,9.98
2024-04-01T12:20:18.489Z,9.83
2024-04-01T12:21:20.856Z,9.63
2024-04-01T12:22:21.800Z,9.65
2024-04-01T12:23:23.724Z,10.18
2024-04-01T12:24:24.555Z,9.45
2024-04-01T12:25:25.408Z,9.60
2024-04-01T12:26:36.255Z,9.78
2024-04-01T12:27:37.724Z,9.63
2024-04-01T12:28:38.697Z,10.10
2024-04-01T12:29:39.547Z,9.62
2024-04-01T12:30:40.893Z,9.70
2024-04-01T12:32:08.110Z,9.40
2024-04-01T12:33:18.357Z,9.53
2024-04-01T12:34:25.641Z,9.97
2024-04-01T12:35:26.474Z,10.23
2024-04-01T12:36:27.310Z,10.33
2024-04-01T12:37:28.162Z,9.45
2024-04-01T12:38:33.413Z,10.33
2024-04-01T12:39:42.309Z,9.58
2024-04-01T12:40:46.242Z,10.05
2024-04-01T12:41:50.048Z,9.20
2024-04-01T12:42:51.462Z,9.70
2024-04-01T12:43:52.317Z,10.27
2024-04-01T12:44:53.234Z,9.93
2024-04-01T12:45:54.301Z,9.78
2024-04-01T12:46:55.131Z,10.07
2024-04-01T12:47:55.984Z,9.87
2024-04-01T12:48:57.086Z,9.75
2024-04-01T12:50:01.172Z,9.77
2024-04-01T12:51:02.662Z,9.60
2024-04-01T12:52:04.087Z,9.45
2024-04-01T12:53:14.396Z,9.93
2024-04-01T12:54:23.576Z,9.45
2024-04-01T12:55:26.313Z,10.38
2024-04-01T12:56:41.976Z,9.80
2024-04-01T12:58:03.523Z,9.37
2024-04-01T12:59:16.113Z,9.92
2024-04-01T13:00:23.236Z,9.77
2024-04-01T13:01:53.996Z,9.85
2024-04-01T13:03:21.488Z,9.73
2024-04-01T13:04:22.251Z,9.92
2024-04-01T13:05:26.887Z,10.33
2024-04-01T13:06:48.424Z,9.47
2024-04-01T13:08:28.499Z,9.97
2024-04-01T13:09:58.855Z,9.33
2024-04-01T13:11:26.901Z,9.85
2024-04-01T13:12:45.598Z,9.28
2024-04-01T13:14:08.535Z,9.18
2024-04-01T13:15:33.593Z,10.33
2024-04-01T13:17:08.228Z,9.92
2024-04-01T13:18:12.804Z,10.00
2024-04-01T13:19:24.720Z,9.40
2024-04-01T13:20:34.372Z,9.10
2024-04-01T13:21:47.193Z,9.43
2024-04-01T13:23:23.572Z,9.35
2024-04-01T13:24:27.552Z,9.50
2024-04-01T13:25:44.917Z,9.00
2024-04-01T13:26:51.302Z,9.03
2024-04-01T13:28:10.749Z,9.80
2024-04-01T13:29:16.013Z,8.55
2024-04-01T13:30:34.578Z,8.93
2024-04-01T13:32:03.136Z,9.57
2024-04-01T13:33:04.045Z,9.70
2024-04-01T13:34:07.570Z,9.25
2024-04-01T13:35:41.755Z,9.33
2024-04-01T13:36:54.364Z,9.32
2024-04-01T13:38:18.114Z,10.02
2024-04-01T13:39:24.096Z,8.87
2024-04-01T13:40:42.846Z,8.93
2024-04-01T13:42:15.635Z,9.20
2024-04-01T13:43:16.392Z,8.60
2024-04-01T13:44:38.284Z,8.85
2024-04-01T13:46:04.829Z,8.88
2024-04-01T13:47:37.732Z,9.13
2024-04-01T13:49:05.960Z,8.88
2024-04-01T13:50:47.905Z,8.20
2024-04-01T13:51:54.524Z,8.45
2024-04-01T13:53:23.081Z,8.70
2024-04-01T13:54:32.797Z,8.62
2024-04-01T13:55:44.155Z,8.75
2024-04-01T13:57:07.797Z,8.22
2024-04-01T13:58:18.252Z,8.18
2024-04-01T13:59:35.229Z,8.25
2024-04-01T14:00:42.377Z,8.57
2024-04-01T14:01:48.778Z,7.72
2024-04-01T14:03:04.997Z,8.12
2024-04-01T14:04:30.024Z,8.27
2024-04-01T14:05:30.805Z,8.08
2024-04-01T14:06:59.018Z,8.13
2024-04-01T14:08:15.359Z,7.85
2024-04-01T14:09:32.555Z,8.08
2024-04-01T14:10:55.698Z,7.65
2024-04-01T14:12:35.536Z,7.60
2024-04-01T14:14:21.231Z,8.20
2024-04-01T14:15:37.284Z,8.32
2024-04-01T14:16:43.651Z,7.70
2024-04-01T14:17:58.999Z,7.80
2024-04-01T14:19:05.545Z,8.12
2024-04-01T14:20:18.256Z,7.63